sensor_id;sensor_type;location;lat;lon;timestamp;temperature;humidity
71436;SHT31;59251;51.326;12.370;2023-09-07T00:00:37;18.41;79.71
71436;SHT31;59251;51.326;12.370;2023-09-07T00:03:05;18.36;79.96
71436;SHT31;59251;51.326;12.370;2023-09-07T00:05:32;18.34;80.03
71436;SHT31;59251;51.326;12.370;2023-09-07T00:07:59;18.30;80.15
71436;SHT31;59251;51.326;12.370;2023-09-07T00:10:26;18.23;80.56
71436;SHT31;59251;51.326;12.370;2023-09-07T00:12:53;18.22;80.48
71436;SHT31;59251;51.326;12.370;2023-09-07T00:15:20;18.12;80.58
71436;SHT31;59251;51.326;12.370;2023-09-07T00:17:46;18.06;80.92
71436;SHT31;59251;51.326;12.370;2023-09-07T00:20:14;18.03;81.10
71436;SHT31;59251;51.326;12.370;2023-09-07T00:22:41;18.03;81.18
71436;SHT31;59251;51.326;12.370;2023-09-07T00:25:08;17.99;81.23
71436;SHT31;59251;51.326;12.370;2023-09-07T00:27:35;17.93;81.45
71436;SHT31;59251;51.326;12.370;2023-09-07T00:30:02;17.95;81.32
71436;SHT31;59251;51.326;12.370;2023-09-07T00:32:29;17.96;81.32
71436;SHT31;59251;51.326;12.370;2023-09-07T00:34:56;17.96;81.35
71436;SHT31;59251;51.326;12.370;2023-09-07T00:37:24;17.90;81.69
71436;SHT31;59251;51.326;12.370;2023-09-07T00:39:51;17.95;81.56
71436;SHT31;59251;51.326;12.370;2023-09-07T00:42:19;17.89;81.54
71436;SHT31;59251;51.326;12.370;2023-09-07T00:44:45;17.86;81.63
71436;SHT31;59251;51.326;12.370;2023-09-07T00:47:13;17.98;81.53
71436;SHT31;59251;51.326;12.370;2023-09-07T00:49:40;17.92;81.61
71436;SHT31;59251;51.326;12.370;2023-09-07T00:52:08;17.92;81.44
71436;SHT31;59251;51.326;12.370;2023-09-07T00:54:36;17.99;81.36
71436;SHT31;59251;51.326;12.370;2023-09-07T00:57:04;17.99;81.44
71436;SHT31;59251;51.326;12.370;2023-09-07T00:59:32;17.93;81.67
71436;SHT31;59251;51.326;12.370;2023-09-07T01:01:59;17.85;81.84
71436;SHT31;59251;51.326;12.370;2023-09-07T01:04:25;17.90;81.58
71436;SHT31;59251;51.326;12.370;2023-09-07T01:06:56;17.81;82.04
71436;SHT31;59251;51.326;12.370;2023-09-07T01:09:28;17.81;82.31
71436;SHT31;59251;51.326;12.370;2023-09-07T01:11:58;17.79;82.15
71436;SHT31;59251;51.326;12.370;2023-09-07T01:14:25;17.77;82.15
71436;SHT31;59251;51.326;12.370;2023-09-07T01:16:51;17.69;82.60
71436;SHT31;59251;51.326;12.370;2023-09-07T01:19:19;17.62;82.79
71436;SHT31;59251;51.326;12.370;2023-09-07T01:21:47;17.65;82.70
71436;SHT31;59251;51.326;12.370;2023-09-07T01:24:16;17.65;82.80
71436;SHT31;59251;51.326;12.370;2023-09-07T01:26:43;17.74;82.58
71436;SHT31;59251;51.326;12.370;2023-09-07T01:29:15;17.64;82.87
71436;SHT31;59251;51.326;12.370;2023-09-07T01:31:42;17.62;83.01
71436;SHT31;59251;51.326;12.370;2023-09-07T01:34:09;17.62;83.12
71436;SHT31;59251;51.326;12.370;2023-09-07T01:36:36;17.54;83.41
71436;SHT31;59251;51.326;12.370;2023-09-07T01:39:05;17.51;83.60
71436;SHT31;59251;51.326;12.370;2023-09-07T01:41:32;17.45;83.93
71436;SHT31;59251;51.326;12.370;2023-09-07T01:43:59;17.35;84.28
71436;SHT31;59251;51.326;12.370;2023-09-07T01:46:26;17.35;84.35
71436;SHT31;59251;51.326;12.370;2023-09-07T01:48:53;17.32;84.36
71436;SHT31;59251;51.326;12.370;2023-09-07T01:51:19;17.26;84.70
71436;SHT31;59251;51.326;12.370;2023-09-07T01:53:47;17.30;84.49
71436;SHT31;59251;51.326;12.370;2023-09-07T01:56:16;17.34;84.42
71436;SHT31;59251;51.326;12.370;2023-09-07T01:58:42;17.21;84.79
71436;SHT31;59251;51.326;12.370;2023-09-07T02:01:20;17.16;85.04
71436;SHT31;59251;51.326;12.370;2023-09-07T02:03:47;17.16;85.18
71436;SHT31;59251;51.326;12.370;2023-09-07T02:06:14;17.10;85.56
71436;SHT31;59251;51.326;12.370;2023-09-07T02:08:42;17.03;85.77
71436;SHT31;59251;51.326;12.370;2023-09-07T02:11:09;16.97;86.10
71436;SHT31;59251;51.326;12.370;2023-09-07T02:13:37;17.03;85.78
71436;SHT31;59251;51.326;12.370;2023-09-07T02:16:04;16.99;86.03
71436;SHT31;59251;51.326;12.370;2023-09-07T02:18:33;16.93;86.18
71436;SHT31;59251;51.326;12.370;2023-09-07T02:21:03;16.86;86.54
71436;SHT31;59251;51.326;12.370;2023-09-07T02:23:30;16.84;86.39
71436;SHT31;59251;51.326;12.370;2023-09-07T02:25:57;16.93;86.05
71436;SHT31;59251;51.326;12.370;2023-09-07T02:28:24;16.90;86.13
71436;SHT31;59251;51.326;12.370;2023-09-07T02:30:53;17.00;85.85
71436;SHT31;59251;51.326;12.370;2023-09-07T02:33:20;16.92;86.19
71436;SHT31;59251;51.326;12.370;2023-09-07T02:35:47;16.79;86.73
71436;SHT31;59251;51.326;12.370;2023-09-07T02:38:15;16.84;86.57
71436;SHT31;59251;51.326;12.370;2023-09-07T02:40:42;16.80;86.64
71436;SHT31;59251;51.326;12.370;2023-09-07T02:43:09;16.79;86.87
71436;SHT31;59251;51.326;12.370;2023-09-07T02:45:37;16.71;86.98
71436;SHT31;59251;51.326;12.370;2023-09-07T02:48:06;16.55;88.58
71436;SHT31;59251;51.326;12.370;2023-09-07T02:50:34;16.47;89.33
71436;SHT31;59251;51.326;12.370;2023-09-07T02:53:01;16.40;89.80
71436;SHT31;59251;51.326;12.370;2023-09-07T02:55:30;16.31;89.78
71436;SHT31;59251;51.326;12.370;2023-09-07T02:57:57;16.28;90.17
71436;SHT31;59251;51.326;12.370;2023-09-07T03:00:25;16.10;91.03
71436;SHT31;59251;51.326;12.370;2023-09-07T03:02:52;15.94;91.69
71436;SHT31;59251;51.326;12.370;2023-09-07T03:05:20;15.80;91.86
71436;SHT31;59251;51.326;12.370;2023-09-07T03:07:47;15.82;91.86
71436;SHT31;59251;51.326;12.370;2023-09-07T03:10:15;15.60;92.81
71436;SHT31;59251;51.326;12.370;2023-09-07T03:12:43;15.60;92.78
71436;SHT31;59251;51.326;12.370;2023-09-07T03:15:11;15.52;93.30
71436;SHT31;59251;51.326;12.370;2023-09-07T03:17:39;15.49;93.45
71436;SHT31;59251;51.326;12.370;2023-09-07T03:20:07;15.45;93.67
71436;SHT31;59251;51.326;12.370;2023-09-07T03:22:44;15.39;93.64
71436;SHT31;59251;51.326;12.370;2023-09-07T03:25:13;15.27;93.91
71436;SHT31;59251;51.326;12.370;2023-09-07T03:27:40;15.29;94.02
71436;SHT31;59251;51.326;12.370;2023-09-07T03:30:10;15.24;94.27
71436;SHT31;59251;51.326;12.370;2023-09-07T03:32:37;15.31;93.83
71436;SHT31;59251;51.326;12.370;2023-09-07T03:35:05;15.32;93.64
71436;SHT31;59251;51.326;12.370;2023-09-07T03:37:35;15.31;93.43
71436;SHT31;59251;51.326;12.370;2023-09-07T03:40:05;15.25;93.42
71436;SHT31;59251;51.326;12.370;2023-09-07T03:42:35;15.20;94.27
71436;SHT31;59251;51.326;12.370;2023-09-07T03:45:03;15.17;94.86
71436;SHT31;59251;51.326;12.370;2023-09-07T03:47:32;15.05;94.82
71436;SHT31;59251;51.326;12.370;2023-09-07T03:49:59;15.02;95.69
71436;SHT31;59251;51.326;12.370;2023-09-07T03:52:28;15.02;95.64
71436;SHT31;59251;51.326;12.370;2023-09-07T03:54:57;14.91;95.82
71436;SHT31;59251;51.326;12.370;2023-09-07T03:57:26;14.85;96.16
71436;SHT31;59251;51.326;12.370;2023-09-07T03:59:53;14.85;96.00
71436;SHT31;59251;51.326;12.370;2023-09-07T04:02:20;14.84;96.42
71436;SHT31;59251;51.326;12.370;2023-09-07T04:04:48;14.80;96.21
71436;SHT31;59251;51.326;12.370;2023-09-07T04:07:15;14.83;96.36
71436;SHT31;59251;51.326;12.370;2023-09-07T04:09:42;14.80;96.29
71436;SHT31;59251;51.326;12.370;2023-09-07T04:12:09;14.67;96.68
71436;SHT31;59251;51.326;12.370;2023-09-07T04:14:37;14.80;96.73
71436;SHT31;59251;51.326;12.370;2023-09-07T04:17:04;14.81;96.72
71436;SHT31;59251;51.326;12.370;2023-09-07T04:19:31;14.83;96.50
71436;SHT31;59251;51.326;12.370;2023-09-07T04:21:58;14.77;96.41
71436;SHT31;59251;51.326;12.370;2023-09-07T04:24:25;14.77;96.54
71436;SHT31;59251;51.326;12.370;2023-09-07T04:26:52;14.66;96.81
71436;SHT31;59251;51.326;12.370;2023-09-07T04:29:19;14.69;97.02
71436;SHT31;59251;51.326;12.370;2023-09-07T04:31:49;14.70;96.96
71436;SHT31;59251;51.326;12.370;2023-09-07T04:34:16;14.63;96.85
71436;SHT31;59251;51.326;12.370;2023-09-07T04:36:42;14.63;96.94
71436;SHT31;59251;51.326;12.370;2023-09-07T04:39:10;14.69;96.93
71436;SHT31;59251;51.326;12.370;2023-09-07T04:41:39;14.62;97.29
71436;SHT31;59251;51.326;12.370;2023-09-07T04:44:06;14.60;97.42
71436;SHT31;59251;51.326;12.370;2023-09-07T04:46:33;14.64;97.30
71436;SHT31;59251;51.326;12.370;2023-09-07T04:49:02;14.69;97.50
71436;SHT31;59251;51.326;12.370;2023-09-07T04:51:28;14.77;96.94
71436;SHT31;59251;51.326;12.370;2023-09-07T04:53:55;14.83;97.03
71436;SHT31;59251;51.326;12.370;2023-09-07T04:56:22;14.93;96.78
71436;SHT31;59251;51.326;12.370;2023-09-07T04:58:51;14.91;96.72
71436;SHT31;59251;51.326;12.370;2023-09-07T05:01:18;14.88;96.54
71436;SHT31;59251;51.326;12.370;2023-09-07T05:03:44;14.83;96.71
71436;SHT31;59251;51.326;12.370;2023-09-07T05:06:12;14.95;96.35
71436;SHT31;59251;51.326;12.370;2023-09-07T05:08:40;15.04;96.07
71436;SHT31;59251;51.326;12.370;2023-09-07T05:11:06;15.11;95.75
71436;SHT31;59251;51.326;12.370;2023-09-07T05:13:33;15.12;95.52
71436;SHT31;59251;51.326;12.370;2023-09-07T05:16:01;15.27;95.13
71436;SHT31;59251;51.326;12.370;2023-09-07T05:18:30;15.35;94.71
71436;SHT31;59251;51.326;12.370;2023-09-07T05:20:57;15.41;94.68
71436;SHT31;59251;51.326;12.370;2023-09-07T05:23:25;15.53;93.91
71436;SHT31;59251;51.326;12.370;2023-09-07T05:25:53;15.66;93.53
71436;SHT31;59251;51.326;12.370;2023-09-07T05:28:22;15.73;93.38
71436;SHT31;59251;51.326;12.370;2023-09-07T05:30:51;15.82;93.07
71436;SHT31;59251;51.326;12.370;2023-09-07T05:33:20;15.93;92.43
71436;SHT31;59251;51.326;12.370;2023-09-07T05:35:47;15.97;92.17
71436;SHT31;59251;51.326;12.370;2023-09-07T05:38:14;16.10;91.82
71436;SHT31;59251;51.326;12.370;2023-09-07T05:40:44;16.25;91.07
71436;SHT31;59251;51.326;12.370;2023-09-07T05:43:12;16.42;90.48
71436;SHT31;59251;51.326;12.370;2023-09-07T05:45:40;16.59;89.84
71436;SHT31;59251;51.326;12.370;2023-09-07T05:48:08;17.03;88.57
71436;SHT31;59251;51.326;12.370;2023-09-07T05:50:37;18.32;84.72
71436;SHT31;59251;51.326;12.370;2023-09-07T05:53:04;18.67;83.15
71436;SHT31;59251;51.326;12.370;2023-09-07T05:55:32;18.36;83.34
71436;SHT31;59251;51.326;12.370;2023-09-07T05:58:04;18.23;83.76
71436;SHT31;59251;51.326;12.370;2023-09-07T06:00:33;17.98;84.11
71436;SHT31;59251;51.326;12.370;2023-09-07T06:03:01;18.17;83.97
71436;SHT31;59251;51.326;12.370;2023-09-07T06:05:29;18.33;83.39
71436;SHT31;59251;51.326;12.370;2023-09-07T06:07:56;19.29;80.74
71436;SHT31;59251;51.326;12.370;2023-09-07T06:10:23;20.32;77.74
71436;SHT31;59251;51.326;12.370;2023-09-07T06:12:50;20.30;77.13
71436;SHT31;59251;51.326;12.370;2023-09-07T06:15:18;20.15;77.43
71436;SHT31;59251;51.326;12.370;2023-09-07T06:17:45;19.77;78.07
71436;SHT31;59251;51.326;12.370;2023-09-07T06:20:12;19.36;79.34
71436;SHT31;59251;51.326;12.370;2023-09-07T06:22:39;19.30;79.72
71436;SHT31;59251;51.326;12.370;2023-09-07T06:25:06;19.01;79.89
71436;SHT31;59251;51.326;12.370;2023-09-07T06:27:33;18.87;80.31
71436;SHT31;59251;51.326;12.370;2023-09-07T06:30:00;18.76;80.68
71436;SHT31;59251;51.326;12.370;2023-09-07T06:32:28;18.95;80.17
71436;SHT31;59251;51.326;12.370;2023-09-07T06:34:55;18.88;79.46
71436;SHT31;59251;51.326;12.370;2023-09-07T06:37:22;19.05;79.18
71436;SHT31;59251;51.326;12.370;2023-09-07T06:39:50;19.18;78.68
71436;SHT31;59251;51.326;12.370;2023-09-07T06:42:17;19.24;78.47
71436;SHT31;59251;51.326;12.370;2023-09-07T06:44:48;19.27;78.53
71436;SHT31;59251;51.326;12.370;2023-09-07T06:47:16;19.34;78.39
71436;SHT31;59251;51.326;12.370;2023-09-07T06:49:44;19.26;78.60
71436;SHT31;59251;51.326;12.370;2023-09-07T06:52:11;19.40;78.21
71436;SHT31;59251;51.326;12.370;2023-09-07T06:54:39;19.61;77.70
71436;SHT31;59251;51.326;12.370;2023-09-07T06:57:06;19.73;77.40
71436;SHT31;59251;51.326;12.370;2023-09-07T06:59:33;19.78;76.77
71436;SHT31;59251;51.326;12.370;2023-09-07T07:01:59;19.92;76.48
71436;SHT31;59251;51.326;12.370;2023-09-07T07:04:27;19.98;76.18
71436;SHT31;59251;51.326;12.370;2023-09-07T07:06:55;20.09;75.60
71436;SHT31;59251;51.326;12.370;2023-09-07T07:09:22;20.33;75.32
71436;SHT31;59251;51.326;12.370;2023-09-07T07:11:48;20.32;74.86
71436;SHT31;59251;51.326;12.370;2023-09-07T07:14:16;20.30;74.66
71436;SHT31;59251;51.326;12.370;2023-09-07T07:16:43;20.32;74.98
71436;SHT31;59251;51.326;12.370;2023-09-07T07:19:10;20.57;74.66
71436;SHT31;59251;51.326;12.370;2023-09-07T07:21:37;20.43;74.64
71436;SHT31;59251;51.326;12.370;2023-09-07T07:24:08;20.56;74.36
71436;SHT31;59251;51.326;12.370;2023-09-07T07:26:34;20.65;74.21
71436;SHT31;59251;51.326;12.370;2023-09-07T07:29:01;20.70;74.54
71436;SHT31;59251;51.326;12.370;2023-09-07T07:31:29;20.66;74.31
71436;SHT31;59251;51.326;12.370;2023-09-07T07:33:56;20.93;74.01
71436;SHT31;59251;51.326;12.370;2023-09-07T07:36:23;21.03;73.75
71436;SHT31;59251;51.326;12.370;2023-09-07T07:38:49;21.12;73.75
71436;SHT31;59251;51.326;12.370;2023-09-07T07:41:17;21.22;73.48
71436;SHT31;59251;51.326;12.370;2023-09-07T07:43:44;21.24;73.52
71436;SHT31;59251;51.326;12.370;2023-09-07T07:46:11;21.37;73.47
71436;SHT31;59251;51.326;12.370;2023-09-07T07:48:41;21.53;72.93
71436;SHT31;59251;51.326;12.370;2023-09-07T07:51:08;21.65;72.57
71436;SHT31;59251;51.326;12.370;2023-09-07T07:53:36;21.72;72.61
71436;SHT31;59251;51.326;12.370;2023-09-07T07:56:03;21.80;72.02
71436;SHT31;59251;51.326;12.370;2023-09-07T07:58:31;22.03;71.62
71436;SHT31;59251;51.326;12.370;2023-09-07T08:00:58;22.04;71.48
71436;SHT31;59251;51.326;12.370;2023-09-07T08:03:30;22.11;71.21
71436;SHT31;59251;51.326;12.370;2023-09-07T08:05:58;22.17;70.99
71436;SHT31;59251;51.326;12.370;2023-09-07T08:08:24;22.36;70.77
71436;SHT31;59251;51.326;12.370;2023-09-07T08:10:51;22.34;70.74
71436;SHT31;59251;51.326;12.370;2023-09-07T08:13:18;22.25;71.02
71436;SHT31;59251;51.326;12.370;2023-09-07T08:15:47;22.33;70.75
71436;SHT31;59251;51.326;12.370;2023-09-07T08:18:14;22.38;70.56
71436;SHT31;59251;51.326;12.370;2023-09-07T08:20:41;22.57;70.28
71436;SHT31;59251;51.326;12.370;2023-09-07T08:23:08;22.75;69.77
71436;SHT31;59251;51.326;12.370;2023-09-07T08:25:36;22.89;69.74
71436;SHT31;59251;51.326;12.370;2023-09-07T08:28:05;23.00;69.65
71436;SHT31;59251;51.326;12.370;2023-09-07T08:30:33;23.20;69.61
71436;SHT31;59251;51.326;12.370;2023-09-07T08:33:01;23.26;69.54
71436;SHT31;59251;51.326;12.370;2023-09-07T08:35:30;23.20;69.29
71436;SHT31;59251;51.326;12.370;2023-09-07T08:38:00;23.27;69.52
71436;SHT31;59251;51.326;12.370;2023-09-07T08:40:30;23.43;68.98
71436;SHT31;59251;51.326;12.370;2023-09-07T08:43:00;23.58;68.76
71436;SHT31;59251;51.326;12.370;2023-09-07T08:45:29;23.62;68.82
71436;SHT31;59251;51.326;12.370;2023-09-07T08:47:57;23.71;68.11
71436;SHT31;59251;51.326;12.370;2023-09-07T08:50:27;23.79;67.60
71436;SHT31;59251;51.326;12.370;2023-09-07T08:52:55;23.92;67.57
71436;SHT31;59251;51.326;12.370;2023-09-07T08:55:24;23.97;67.28
71436;SHT31;59251;51.326;12.370;2023-09-07T08:57:52;24.15;66.19
71436;SHT31;59251;51.326;12.370;2023-09-07T09:00:18;24.32;66.03
71436;SHT31;59251;51.326;12.370;2023-09-07T09:02:46;24.36;66.12
71436;SHT31;59251;51.326;12.370;2023-09-07T09:05:14;24.52;65.52
71436;SHT31;59251;51.326;12.370;2023-09-07T09:07:44;24.64;65.84
71436;SHT31;59251;51.326;12.370;2023-09-07T09:10:11;24.74;64.90
71436;SHT31;59251;51.326;12.370;2023-09-07T09:12:44;24.70;64.80
71436;SHT31;59251;51.326;12.370;2023-09-07T09:15:11;24.78;64.92
71436;SHT31;59251;51.326;12.370;2023-09-07T09:17:38;24.98;64.09
71436;SHT31;59251;51.326;12.370;2023-09-07T09:20:19;25.07;63.65
71436;SHT31;59251;51.326;12.370;2023-09-07T09:22:48;25.03;64.12
71436;SHT31;59251;51.326;12.370;2023-09-07T09:25:14;25.19;63.53
71436;SHT31;59251;51.326;12.370;2023-09-07T09:27:41;25.28;63.81
71436;SHT31;59251;51.326;12.370;2023-09-07T09:30:09;25.29;63.83
71436;SHT31;59251;51.326;12.370;2023-09-07T09:32:35;25.50;63.57
71436;SHT31;59251;51.326;12.370;2023-09-07T09:35:02;25.58;63.43
71436;SHT31;59251;51.326;12.370;2023-09-07T09:37:30;25.58;63.34
71436;SHT31;59251;51.326;12.370;2023-09-07T09:40:00;25.63;63.20
71436;SHT31;59251;51.326;12.370;2023-09-07T09:42:29;25.69;63.43
71436;SHT31;59251;51.326;12.370;2023-09-07T09:44:56;25.83;62.90
71436;SHT31;59251;51.326;12.370;2023-09-07T09:47:25;25.83;62.96
71436;SHT31;59251;51.326;12.370;2023-09-07T09:49:52;25.87;63.11
71436;SHT31;59251;51.326;12.370;2023-09-07T09:52:19;25.97;63.05
71436;SHT31;59251;51.326;12.370;2023-09-07T09:54:46;26.05;62.77
71436;SHT31;59251;51.326;12.370;2023-09-07T09:57:14;26.20;62.66
71436;SHT31;59251;51.326;12.370;2023-09-07T09:59:41;26.21;62.15
71436;SHT31;59251;51.326;12.370;2023-09-07T10:02:09;26.39;61.78
71436;SHT31;59251;51.326;12.370;2023-09-07T10:04:36;26.47;61.31
71436;SHT31;59251;51.326;12.370;2023-09-07T10:07:05;26.52;60.48
71436;SHT31;59251;51.326;12.370;2023-09-07T10:09:32;26.63;59.91
71436;SHT31;59251;51.326;12.370;2023-09-07T10:12:01;26.73;59.52
71436;SHT31;59251;51.326;12.370;2023-09-07T10:14:39;26.83;59.11
71436;SHT31;59251;51.326;12.370;2023-09-07T10:17:06;26.85;58.97
71436;SHT31;59251;51.326;12.370;2023-09-07T10:19:35;26.78;58.46
71436;SHT31;59251;51.326;12.370;2023-09-07T10:22:03;26.95;57.89
71436;SHT31;59251;51.326;12.370;2023-09-07T10:24:31;26.96;57.96
71436;SHT31;59251;51.326;12.370;2023-09-07T10:27:02;27.00;58.16
71436;SHT31;59251;51.326;12.370;2023-09-07T10:29:42;27.03;58.62
71436;SHT31;59251;51.326;12.370;2023-09-07T10:32:09;27.13;57.96
71436;SHT31;59251;51.326;12.370;2023-09-07T10:34:39;27.17;57.82
71436;SHT31;59251;51.326;12.370;2023-09-07T10:37:09;27.18;57.68
71436;SHT31;59251;51.326;12.370;2023-09-07T10:39:39;27.27;57.26
71436;SHT31;59251;51.326;12.370;2023-09-07T10:42:08;27.40;57.31
71436;SHT31;59251;51.326;12.370;2023-09-07T10:44:35;27.26;56.54
71436;SHT31;59251;51.326;12.370;2023-09-07T10:47:03;27.34;57.16
71436;SHT31;59251;51.326;12.370;2023-09-07T10:49:30;27.44;57.18
71436;SHT31;59251;51.326;12.370;2023-09-07T10:51:57;27.57;57.18
71436;SHT31;59251;51.326;12.370;2023-09-07T10:54:24;27.73;56.92
71436;SHT31;59251;51.326;12.370;2023-09-07T10:56:51;27.93;56.48
71436;SHT31;59251;51.326;12.370;2023-09-07T10:59:18;27.85;55.96
71436;SHT31;59251;51.326;12.370;2023-09-07T11:01:45;27.89;54.84
71436;SHT31;59251;51.326;12.370;2023-09-07T11:04:14;27.95;53.97
71436;SHT31;59251;51.326;12.370;2023-09-07T11:06:43;28.06;54.06
71436;SHT31;59251;51.326;12.370;2023-09-07T11:09:10;28.02;52.97
71436;SHT31;59251;51.326;12.370;2023-09-07T11:11:36;28.19;52.58
71436;SHT31;59251;51.326;12.370;2023-09-07T11:14:03;28.12;51.99
71436;SHT31;59251;51.326;12.370;2023-09-07T11:16:32;28.26;52.37
71436;SHT31;59251;51.326;12.370;2023-09-07T11:19:02;28.36;51.87
71436;SHT31;59251;51.326;12.370;2023-09-07T11:21:31;28.39;51.93
71436;SHT31;59251;51.326;12.370;2023-09-07T11:24:00;28.32;50.82
71436;SHT31;59251;51.326;12.370;2023-09-07T11:26:27;28.53;50.94
71436;SHT31;59251;51.326;12.370;2023-09-07T11:28:53;28.77;50.15
71436;SHT31;59251;51.326;12.370;2023-09-07T11:31:21;28.79;49.49
71436;SHT31;59251;51.326;12.370;2023-09-07T11:33:48;28.84;49.81
71436;SHT31;59251;51.326;12.370;2023-09-07T11:36:14;29.19;49.17
71436;SHT31;59251;51.326;12.370;2023-09-07T11:38:43;29.78;48.33
71436;SHT31;59251;51.326;12.370;2023-09-07T11:41:11;30.49;47.54
71436;SHT31;59251;51.326;12.370;2023-09-07T11:43:37;30.66;47.77
71436;SHT31;59251;51.326;12.370;2023-09-07T11:46:05;30.77;47.73
71436;SHT31;59251;51.326;12.370;2023-09-07T11:48:31;30.90;47.37
71436;SHT31;59251;51.326;12.370;2023-09-07T11:51:00;30.82;48.02
71436;SHT31;59251;51.326;12.370;2023-09-07T11:53:27;30.93;47.54
71436;SHT31;59251;51.326;12.370;2023-09-07T11:55:56;31.14;47.84
71436;SHT31;59251;51.326;12.370;2023-09-07T11:58:23;31.33;47.77
71436;SHT31;59251;51.326;12.370;2023-09-07T12:00:52;31.41;47.76
71436;SHT31;59251;51.326;12.370;2023-09-07T12:03:19;31.65;47.42
71436;SHT31;59251;51.326;12.370;2023-09-07T12:05:46;31.35;47.76
71436;SHT31;59251;51.326;12.370;2023-09-07T12:08:12;31.94;46.83
71436;SHT31;59251;51.326;12.370;2023-09-07T12:10:40;31.85;47.16
71436;SHT31;59251;51.326;12.370;2023-09-07T12:13:08;32.10;46.23
71436;SHT31;59251;51.326;12.370;2023-09-07T12:15:34;31.57;46.56
71436;SHT31;59251;51.326;12.370;2023-09-07T12:18:01;31.13;47.31
71436;SHT31;59251;51.326;12.370;2023-09-07T12:20:28;31.86;46.56
71436;SHT31;59251;51.326;12.370;2023-09-07T12:22:55;32.10;45.75
71436;SHT31;59251;51.326;12.370;2023-09-07T12:25:21;33.13;44.32
71436;SHT31;59251;51.326;12.370;2023-09-07T12:27:48;33.57;43.20
71436;SHT31;59251;51.326;12.370;2023-09-07T12:30:17;33.57;43.06
71436;SHT31;59251;51.326;12.370;2023-09-07T12:32:45;32.96;44.04
71436;SHT31;59251;51.326;12.370;2023-09-07T12:35:12;32.99;43.52
71436;SHT31;59251;51.326;12.370;2023-09-07T12:37:40;32.92;43.85
71436;SHT31;59251;51.326;12.370;2023-09-07T12:40:07;34.12;42.19
71436;SHT31;59251;51.326;12.370;2023-09-07T12:42:39;33.93;41.72
71436;SHT31;59251;51.326;12.370;2023-09-07T12:45:07;33.74;41.63
71436;SHT31;59251;51.326;12.370;2023-09-07T12:47:35;34.19;41.05
71436;SHT31;59251;51.326;12.370;2023-09-07T12:50:03;34.11;40.78
71436;SHT31;59251;51.326;12.370;2023-09-07T12:52:30;34.28;40.94
71436;SHT31;59251;51.326;12.370;2023-09-07T12:54:57;35.37;39.76
71436;SHT31;59251;51.326;12.370;2023-09-07T12:57:23;36.02;38.66
71436;SHT31;59251;51.326;12.370;2023-09-07T12:59:50;35.79;38.90
71436;SHT31;59251;51.326;12.370;2023-09-07T13:02:17;36.26;38.47
71436;SHT31;59251;51.326;12.370;2023-09-07T13:04:45;36.27;37.99
71436;SHT31;59251;51.326;12.370;2023-09-07T13:07:12;35.52;38.91
71436;SHT31;59251;51.326;12.370;2023-09-07T13:09:38;35.35;38.67
71436;SHT31;59251;51.326;12.370;2023-09-07T13:12:06;35.42;38.69
71436;SHT31;59251;51.326;12.370;2023-09-07T13:14:33;36.37;37.78
71436;SHT31;59251;51.326;12.370;2023-09-07T13:17:00;36.37;37.95
71436;SHT31;59251;51.326;12.370;2023-09-07T13:19:26;36.70;37.64
71436;SHT31;59251;51.326;12.370;2023-09-07T13:21:55;37.10;37.30
71436;SHT31;59251;51.326;12.370;2023-09-07T13:24:22;35.81;38.76
71436;SHT31;59251;51.326;12.370;2023-09-07T13:26:51;35.08;39.34
71436;SHT31;59251;51.326;12.370;2023-09-07T13:29:18;35.51;39.11
71436;SHT31;59251;51.326;12.370;2023-09-07T13:31:44;35.78;38.42
71436;SHT31;59251;51.326;12.370;2023-09-07T13:34:12;35.13;39.78
71436;SHT31;59251;51.326;12.370;2023-09-07T13:36:39;36.00;38.96
71436;SHT31;59251;51.326;12.370;2023-09-07T13:39:07;35.68;38.78
71436;SHT31;59251;51.326;12.370;2023-09-07T13:41:34;36.81;37.57
71436;SHT31;59251;51.326;12.370;2023-09-07T13:44:01;37.23;36.94
71436;SHT31;59251;51.326;12.370;2023-09-07T13:46:27;37.97;36.52
71436;SHT31;59251;51.326;12.370;2023-09-07T13:48:54;36.67;37.58
71436;SHT31;59251;51.326;12.370;2023-09-07T13:51:21;36.78;37.57
71436;SHT31;59251;51.326;12.370;2023-09-07T13:53:48;36.56;37.41
71436;SHT31;59251;51.326;12.370;2023-09-07T13:56:17;37.08;37.45
71436;SHT31;59251;51.326;12.370;2023-09-07T13:58:44;36.67;38.00
71436;SHT31;59251;51.326;12.370;2023-09-07T14:01:11;36.27;38.25
71436;SHT31;59251;51.326;12.370;2023-09-07T14:03:38;36.77;37.80
71436;SHT31;59251;51.326;12.370;2023-09-07T14:06:04;36.58;38.44
71436;SHT31;59251;51.326;12.370;2023-09-07T14:08:31;36.15;38.44
71436;SHT31;59251;51.326;12.370;2023-09-07T14:11:00;36.83;37.56
71436;SHT31;59251;51.326;12.370;2023-09-07T14:13:28;36.67;37.84
71436;SHT31;59251;51.326;12.370;2023-09-07T14:15:54;37.26;37.29
71436;SHT31;59251;51.326;12.370;2023-09-07T14:18:21;38.11;36.41
71436;SHT31;59251;51.326;12.370;2023-09-07T14:20:48;38.56;36.24
71436;SHT31;59251;51.326;12.370;2023-09-07T14:23:15;38.15;36.63
71436;SHT31;59251;51.326;12.370;2023-09-07T14:25:42;38.98;35.58
71436;SHT31;59251;51.326;12.370;2023-09-07T14:28:11;39.16;35.12
71436;SHT31;59251;51.326;12.370;2023-09-07T14:30:39;37.52;36.81
71436;SHT31;59251;51.326;12.370;2023-09-07T14:33:06;38.06;36.21
71436;SHT31;59251;51.326;12.370;2023-09-07T14:35:33;37.63;36.53
71436;SHT31;59251;51.326;12.370;2023-09-07T14:38:00;37.19;36.40
71436;SHT31;59251;51.326;12.370;2023-09-07T14:40:27;37.62;36.59
71436;SHT31;59251;51.326;12.370;2023-09-07T14:42:53;36.53;37.67
71436;SHT31;59251;51.326;12.370;2023-09-07T14:45:22;37.80;36.24
71436;SHT31;59251;51.326;12.370;2023-09-07T14:47:50;36.50;37.19
71436;SHT31;59251;51.326;12.370;2023-09-07T14:50:17;38.14;35.63
71436;SHT31;59251;51.326;12.370;2023-09-07T14:52:45;36.98;36.90
71436;SHT31;59251;51.326;12.370;2023-09-07T14:55:13;37.55;36.12
71436;SHT31;59251;51.326;12.370;2023-09-07T14:57:40;38.66;35.29
71436;SHT31;59251;51.326;12.370;2023-09-07T15:00:09;38.63;35.47
71436;SHT31;59251;51.326;12.370;2023-09-07T15:02:37;36.92;36.95
71436;SHT31;59251;51.326;12.370;2023-09-07T15:05:05;36.98;37.21
71436;SHT31;59251;51.326;12.370;2023-09-07T15:07:32;37.29;36.21
71436;SHT31;59251;51.326;12.370;2023-09-07T15:09:58;38.31;35.19
71436;SHT31;59251;51.326;12.370;2023-09-07T15:12:25;36.90;36.18
71436;SHT31;59251;51.326;12.370;2023-09-07T15:14:52;36.37;37.01
71436;SHT31;59251;51.326;12.370;2023-09-07T15:17:19;35.89;37.45